URMT

Stavropol Shpakovskoye Airport

Stavropol, Russian Federation
TAF URMT 251400Z 2515/2524 32006G11MPS 9999 SCT020CB TEMPO 2515/2521 33009G14MPS 3100 -SHRA BKN011 BKN020CB
Issued Valid From Valid To
Sep-25 @ 14:00 UTC
(an hour ago)
Sep-25 @ 15:00 UTC
(9 minutes ago)
Sep-26 @ 00:00 UTC
(in 9 hours)
Sep-25 @ 15:00 to Sep-26 @ 00:00
TAF URMT 251400Z 2515/2524 32006G11MPS 9999 SCT020CB
Wind Visibility Clouds
320° at 12 knots
 Gusting to 21 knots
10,000+ meters
  • Scattered at 2,000' AGL
Temporary Sep-25 @ 15:00 to Sep-25 @ 21:00
TEMPO 2515/2521 33009G14MPS 3100 -SHRA BKN011 BKN020CB
Wind Visibility Clouds Conditions
330° at 17 knots
 Gusting to 27 knots
3,106 meters
  • Broken at 1,100' AGL
  • Broken at 2,000' AGL
  • Light Rain
TAF URMT 251400Z 2515/2524 32006G11MPS 9999 SCT020CB TEMPO 2515/2521 33009G14MPS 3100 -SHRA BKN011 BKN020CB
Issued Sep-25 @ 14:00 UTC
(an hour ago)
Valid From Sep-25 @ 15:00 UTC
(9 minutes ago)
Valid To Sep-26 @ 00:00 UTC
(in 9 hours)
Sep-25 @ 15:00 - Sep-26 @ 00:00
Wind Visibility
320° at 12 knots
 Gusting to 21 knots
10,000+ meters
Clouds
  • Scattered at 2,000' AGL
Temporary Sep-25 @ 15:00 - Sep-25 @ 21:00
Wind Visibility
330° at 17 knots
 Gusting to 27 knots
3,106 meters
Clouds
  • Broken at 1,100' AGL
  • Broken at 2,000' AGL
Conditions
  • Light Rain